sensor_id;sensor_type;location;lat;lon;timestamp;pressure;altitude;pressure_sealevel;temperature
10598;BMP180;5346;48.766;8.674;2024-02-21T00:00:30;94916.00;;;4.10
10598;BMP180;5346;48.766;8.674;2024-02-21T00:03:04;94909.00;;;4.50
10598;BMP180;5346;48.766;8.674;2024-02-21T00:05:46;94913.00;;;4.60
10598;BMP180;5346;48.766;8.674;2024-02-21T00:08:21;94912.00;;;4.60
10598;BMP180;5346;48.766;8.674;2024-02-21T00:10:55;94896.00;;;4.70
10598;BMP180;5346;48.766;8.674;2024-02-21T00:13:23;94890.00;;;4.80
10598;BMP180;5346;48.766;8.674;2024-02-21T00:15:57;94891.00;;;5.00
10598;BMP180;5346;48.766;8.674;2024-02-21T00:18:25;94888.00;;;5.00
10598;BMP180;5346;48.766;8.674;2024-02-21T00:20:59;94890.00;;;5.10
10598;BMP180;5346;48.766;8.674;2024-02-21T00:23:31;94889.00;;;4.90
10598;BMP180;5346;48.766;8.674;2024-02-21T00:26:05;94879.00;;;4.90
10598;BMP180;5346;48.766;8.674;2024-02-21T00:28:39;94882.00;;;5.10
10598;BMP180;5346;48.766;8.674;2024-02-21T00:31:13;94876.00;;;4.90
10598;BMP180;5346;48.766;8.674;2024-02-21T00:33:49;94877.00;;;4.90
10598;BMP180;5346;48.766;8.674;2024-02-21T00:36:24;94862.00;;;4.90
10598;BMP180;5346;48.766;8.674;2024-02-21T00:38:53;94859.00;;;4.90
10598;BMP180;5346;48.766;8.674;2024-02-21T00:41:28;94856.00;;;4.70
10598;BMP180;5346;48.766;8.674;2024-02-21T00:43:56;94854.00;;;4.70
10598;BMP180;5346;48.766;8.674;2024-02-21T00:46:31;94854.00;;;4.50
10598;BMP180;5346;48.766;8.674;2024-02-21T00:48:58;94849.00;;;4.40
10598;BMP180;5346;48.766;8.674;2024-02-21T00:51:33;94847.00;;;4.40
10598;BMP180;5346;48.766;8.674;2024-02-21T00:54:01;94851.00;;;4.80
10598;BMP180;5346;48.766;8.674;2024-02-21T00:56:35;94845.00;;;4.60
10598;BMP180;5346;48.766;8.674;2024-02-21T00:59:02;94836.00;;;4.70
10598;BMP180;5346;48.766;8.674;2024-02-21T01:01:38;94846.00;;;4.80
10598;BMP180;5346;48.766;8.674;2024-02-21T01:04:12;94834.00;;;4.60
10598;BMP180;5346;48.766;8.674;2024-02-21T01:06:46;94832.00;;;4.90
10598;BMP180;5346;48.766;8.674;2024-02-21T01:09:21;94834.00;;;4.70
10598;BMP180;5346;48.766;8.674;2024-02-21T01:11:49;94831.00;;;4.90
10598;BMP180;5346;48.766;8.674;2024-02-21T01:14:24;94827.00;;;4.70
10598;BMP180;5346;48.766;8.674;2024-02-21T01:16:51;94818.00;;;4.60
10598;BMP180;5346;48.766;8.674;2024-02-21T01:19:25;94811.00;;;4.80
10598;BMP180;5346;48.766;8.674;2024-02-21T01:21:59;94814.00;;;5.00
10598;BMP180;5346;48.766;8.674;2024-02-21T01:24:35;94814.00;;;4.80
10598;BMP180;5346;48.766;8.674;2024-02-21T01:27:10;94808.00;;;4.90
10598;BMP180;5346;48.766;8.674;2024-02-21T01:29:45;94814.00;;;4.80
10598;BMP180;5346;48.766;8.674;2024-02-21T01:32:13;94794.00;;;4.90
10598;BMP180;5346;48.766;8.674;2024-02-21T01:34:50;94795.00;;;4.70
10598;BMP180;5346;48.766;8.674;2024-02-21T01:37:18;94790.00;;;4.70
10598;BMP180;5346;48.766;8.674;2024-02-21T01:39:53;94788.00;;;4.90
10598;BMP180;5346;48.766;8.674;2024-02-21T01:42:30;94797.00;;;5.00
10598;BMP180;5346;48.766;8.674;2024-02-21T01:45:07;94786.00;;;5.10
10598;BMP180;5346;48.766;8.674;2024-02-21T01:47:46;94780.00;;;5.20
10598;BMP180;5346;48.766;8.674;2024-02-21T01:50:15;94775.00;;;5.20
10598;BMP180;5346;48.766;8.674;2024-02-21T01:52:51;94773.00;;;5.20
10598;BMP180;5346;48.766;8.674;2024-02-21T01:55:26;94776.00;;;5.20
10598;BMP180;5346;48.766;8.674;2024-02-21T01:58:00;94766.00;;;5.10
10598;BMP180;5346;48.766;8.674;2024-02-21T02:00:37;94757.00;;;5.00
10598;BMP180;5346;48.766;8.674;2024-02-21T02:03:05;94753.00;;;4.90
10598;BMP180;5346;48.766;8.674;2024-02-21T02:05:40;94753.00;;;4.80
10598;BMP180;5346;48.766;8.674;2024-02-21T02:08:16;94745.00;;;4.70
10598;BMP180;5346;48.766;8.674;2024-02-21T02:10:53;94739.00;;;4.70
10598;BMP180;5346;48.766;8.674;2024-02-21T02:13:21;94738.00;;;4.70
10598;BMP180;5346;48.766;8.674;2024-02-21T02:15:50;94731.00;;;4.70
10598;BMP180;5346;48.766;8.674;2024-02-21T02:18:24;94734.00;;;4.30
10598;BMP180;5346;48.766;8.674;2024-02-21T02:20:52;94733.00;;;4.30
10598;BMP180;5346;48.766;8.674;2024-02-21T02:23:33;94737.00;;;4.20
10598;BMP180;5346;48.766;8.674;2024-02-21T02:26:01;94742.00;;;4.20
10598;BMP180;5346;48.766;8.674;2024-02-21T02:28:35;94734.00;;;4.10
10598;BMP180;5346;48.766;8.674;2024-02-21T02:31:10;94725.00;;;4.10
10598;BMP180;5346;48.766;8.674;2024-02-21T02:33:45;94719.00;;;4.10
10598;BMP180;5346;48.766;8.674;2024-02-21T02:36:13;94721.00;;;4.10
10598;BMP180;5346;48.766;8.674;2024-02-21T02:38:48;94711.00;;;4.10
10598;BMP180;5346;48.766;8.674;2024-02-21T02:41:15;94715.00;;;3.90
10598;BMP180;5346;48.766;8.674;2024-02-21T02:43:49;94704.00;;;4.10
10598;BMP180;5346;48.766;8.674;2024-02-21T02:46:17;94706.00;;;4.10
10598;BMP180;5346;48.766;8.674;2024-02-21T02:48:44;94705.00;;;4.00
10598;BMP180;5346;48.766;8.674;2024-02-21T02:51:19;94710.00;;;3.90
10598;BMP180;5346;48.766;8.674;2024-02-21T02:53:47;94700.00;;;4.00
10598;BMP180;5346;48.766;8.674;2024-02-21T02:56:15;94684.00;;;4.00
10598;BMP180;5346;48.766;8.674;2024-02-21T02:58:49;94700.00;;;4.00
10598;BMP180;5346;48.766;8.674;2024-02-21T03:01:17;94692.00;;;3.90
10598;BMP180;5346;48.766;8.674;2024-02-21T03:03:44;94689.00;;;3.90
10598;BMP180;5346;48.766;8.674;2024-02-21T03:06:21;94670.00;;;3.70
10598;BMP180;5346;48.766;8.674;2024-02-21T03:09:02;94667.00;;;3.70
10598;BMP180;5346;48.766;8.674;2024-02-21T03:11:42;94672.00;;;3.60
10598;BMP180;5346;48.766;8.674;2024-02-21T03:14:18;94679.00;;;3.80
10598;BMP180;5346;48.766;8.674;2024-02-21T03:16:46;94664.00;;;3.60
10598;BMP180;5346;48.766;8.674;2024-02-21T03:19:20;94658.00;;;3.70
10598;BMP180;5346;48.766;8.674;2024-02-21T03:21:49;94657.00;;;3.60
10598;BMP180;5346;48.766;8.674;2024-02-21T03:24:23;94652.00;;;3.50
10598;BMP180;5346;48.766;8.674;2024-02-21T03:26:57;94659.00;;;3.50
10598;BMP180;5346;48.766;8.674;2024-02-21T03:29:32;94669.00;;;3.40
10598;BMP180;5346;48.766;8.674;2024-02-21T03:32:22;94660.00;;;3.10
10598;BMP180;5346;48.766;8.674;2024-02-21T03:35:03;94658.00;;;3.30
10598;BMP180;5346;48.766;8.674;2024-02-21T03:37:38;94641.00;;;3.30
10598;BMP180;5346;48.766;8.674;2024-02-21T03:40:08;94633.00;;;3.10
10598;BMP180;5346;48.766;8.674;2024-02-21T03:42:42;94618.00;;;3.00
10598;BMP180;5346;48.766;8.674;2024-02-21T03:45:10;94621.00;;;3.00
10598;BMP180;5346;48.766;8.674;2024-02-21T03:47:44;94626.00;;;3.10
10598;BMP180;5346;48.766;8.674;2024-02-21T03:50:14;94633.00;;;3.30
10598;BMP180;5346;48.766;8.674;2024-02-21T03:52:49;94624.00;;;3.20
10598;BMP180;5346;48.766;8.674;2024-02-21T03:55:17;94632.00;;;3.10
10598;BMP180;5346;48.766;8.674;2024-02-21T03:57:44;94625.00;;;2.90
10598;BMP180;5346;48.766;8.674;2024-02-21T04:00:18;94612.00;;;3.20
10598;BMP180;5346;48.766;8.674;2024-02-21T04:02:52;94612.00;;;3.00
10598;BMP180;5346;48.766;8.674;2024-02-21T04:05:20;94601.00;;;2.90
10598;BMP180;5346;48.766;8.674;2024-02-21T04:07:50;94612.00;;;2.90
10598;BMP180;5346;48.766;8.674;2024-02-21T04:10:25;94613.00;;;2.60
10598;BMP180;5346;48.766;8.674;2024-02-21T04:12:54;94624.00;;;2.80
10598;BMP180;5346;48.766;8.674;2024-02-21T04:15:28;94622.00;;;2.40
10598;BMP180;5346;48.766;8.674;2024-02-21T04:17:56;94617.00;;;2.50
10598;BMP180;5346;48.766;8.674;2024-02-21T04:20:30;94631.00;;;2.30
10598;BMP180;5346;48.766;8.674;2024-02-21T04:22:58;94636.00;;;2.30
10598;BMP180;5346;48.766;8.674;2024-02-21T04:25:26;94628.00;;;2.50
10598;BMP180;5346;48.766;8.674;2024-02-21T04:28:00;94624.00;;;2.80
10598;BMP180;5346;48.766;8.674;2024-02-21T04:30:28;94620.00;;;2.90
10598;BMP180;5346;48.766;8.674;2024-02-21T04:33:02;94626.00;;;2.90
10598;BMP180;5346;48.766;8.674;2024-02-21T04:35:36;94616.00;;;2.60
10598;BMP180;5346;48.766;8.674;2024-02-21T04:38:11;94604.00;;;2.50
10598;BMP180;5346;48.766;8.674;2024-02-21T04:40:39;94612.00;;;2.40
10598;BMP180;5346;48.766;8.674;2024-02-21T04:43:13;94605.00;;;2.30
10598;BMP180;5346;48.766;8.674;2024-02-21T04:45:41;94600.00;;;2.30
10598;BMP180;5346;48.766;8.674;2024-02-21T04:48:22;94601.00;;;2.30
10598;BMP180;5346;48.766;8.674;2024-02-21T04:50:50;94599.00;;;2.00
10598;BMP180;5346;48.766;8.674;2024-02-21T04:53:25;94598.00;;;2.00
10598;BMP180;5346;48.766;8.674;2024-02-21T04:55:53;94610.00;;;1.90
10598;BMP180;5346;48.766;8.674;2024-02-21T04:58:27;94601.00;;;1.80
10598;BMP180;5346;48.766;8.674;2024-02-21T05:01:01;94590.00;;;1.90
10598;BMP180;5346;48.766;8.674;2024-02-21T05:03:36;94592.00;;;1.70
10598;BMP180;5346;48.766;8.674;2024-02-21T05:06:10;94600.00;;;1.60
10598;BMP180;5346;48.766;8.674;2024-02-21T05:08:44;94598.00;;;1.70
10598;BMP180;5346;48.766;8.674;2024-02-21T05:11:13;94597.00;;;1.60
10598;BMP180;5346;48.766;8.674;2024-02-21T05:13:47;94584.00;;;1.70
10598;BMP180;5346;48.766;8.674;2024-02-21T05:16:15;94568.00;;;1.60
10598;BMP180;5346;48.766;8.674;2024-02-21T05:18:49;94572.00;;;1.60
10598;BMP180;5346;48.766;8.674;2024-02-21T05:21:17;94567.00;;;1.60
10598;BMP180;5346;48.766;8.674;2024-02-21T05:23:51;94559.00;;;1.80
10598;BMP180;5346;48.766;8.674;2024-02-21T05:26:23;94551.00;;;1.90
10598;BMP180;5346;48.766;8.674;2024-02-21T05:28:57;94555.00;;;1.80
10598;BMP180;5346;48.766;8.674;2024-02-21T05:34:25;94535.00;;;2.20
10598;BMP180;5346;48.766;8.674;2024-02-21T05:37:00;94542.00;;;2.20
10598;BMP180;5346;48.766;8.674;2024-02-21T05:39:28;94547.00;;;2.10
10598;BMP180;5346;48.766;8.674;2024-02-21T05:42:04;94547.00;;;1.90
10598;BMP180;5346;48.766;8.674;2024-02-21T05:44:38;94550.00;;;1.80
10598;BMP180;5346;48.766;8.674;2024-02-21T05:47:06;94536.00;;;1.80
10598;BMP180;5346;48.766;8.674;2024-02-21T05:49:43;94536.00;;;1.60
10598;BMP180;5346;48.766;8.674;2024-02-21T05:52:13;94554.00;;;1.50
10598;BMP180;5346;48.766;8.674;2024-02-21T05:54:47;94540.00;;;1.30
10598;BMP180;5346;48.766;8.674;2024-02-21T05:57:21;94547.00;;;1.20
10598;BMP180;5346;48.766;8.674;2024-02-21T05:59:55;94529.00;;;1.60
10598;BMP180;5346;48.766;8.674;2024-02-21T06:02:29;94527.00;;;1.80
10598;BMP180;5346;48.766;8.674;2024-02-21T06:04:56;94533.00;;;1.80
10598;BMP180;5346;48.766;8.674;2024-02-21T06:07:31;94532.00;;;1.60
10598;BMP180;5346;48.766;8.674;2024-02-21T06:10:02;94550.00;;;1.80
10598;BMP180;5346;48.766;8.674;2024-02-21T06:12:36;94548.00;;;1.80
10598;BMP180;5346;48.766;8.674;2024-02-21T06:15:04;94542.00;;;1.90
10598;BMP180;5346;48.766;8.674;2024-02-21T06:17:32;94527.00;;;1.90
10598;BMP180;5346;48.766;8.674;2024-02-21T06:20:07;94535.00;;;2.00
10598;BMP180;5346;48.766;8.674;2024-02-21T06:22:41;94529.00;;;2.10
10598;BMP180;5346;48.766;8.674;2024-02-21T06:25:09;94532.00;;;1.80
10598;BMP180;5346;48.766;8.674;2024-02-21T06:27:44;94531.00;;;1.70
10598;BMP180;5346;48.766;8.674;2024-02-21T06:30:18;94532.00;;;1.70
10598;BMP180;5346;48.766;8.674;2024-02-21T06:32:52;94533.00;;;1.80
10598;BMP180;5346;48.766;8.674;2024-02-21T06:35:34;94517.00;;;1.80
10598;BMP180;5346;48.766;8.674;2024-02-21T06:38:01;94516.00;;;1.70
10598;BMP180;5346;48.766;8.674;2024-02-21T06:40:35;94513.00;;;1.70
10598;BMP180;5346;48.766;8.674;2024-02-21T06:43:07;94519.00;;;1.70
10598;BMP180;5346;48.766;8.674;2024-02-21T06:45:41;94517.00;;;1.70
10598;BMP180;5346;48.766;8.674;2024-02-21T06:48:16;94515.00;;;2.10
10598;BMP180;5346;48.766;8.674;2024-02-21T06:50:51;94515.00;;;2.30
10598;BMP180;5346;48.766;8.674;2024-02-21T06:53:26;94522.00;;;2.40
10598;BMP180;5346;48.766;8.674;2024-02-21T06:56:00;94515.00;;;2.30
10598;BMP180;5346;48.766;8.674;2024-02-21T06:58:28;94509.00;;;2.40
10598;BMP180;5346;48.766;8.674;2024-02-21T07:01:02;94511.00;;;2.40
10598;BMP180;5346;48.766;8.674;2024-02-21T07:03:36;94504.00;;;2.50
10598;BMP180;5346;48.766;8.674;2024-02-21T07:06:23;94497.00;;;2.70
10598;BMP180;5346;48.766;8.674;2024-02-21T07:20:17;94490.00;;;3.60
10598;BMP180;5346;48.766;8.674;2024-02-21T07:22:52;94466.00;;;4.00
10598;BMP180;5346;48.766;8.674;2024-02-21T07:25:53;94471.00;;;4.20
10598;BMP180;5346;48.766;8.674;2024-02-21T07:28:28;94478.00;;;4.50
10598;BMP180;5346;48.766;8.674;2024-02-21T07:31:10;94460.00;;;4.90
10598;BMP180;5346;48.766;8.674;2024-02-21T07:33:45;94464.00;;;5.20
10598;BMP180;5346;48.766;8.674;2024-02-21T07:36:14;94463.00;;;5.00
10598;BMP180;5346;48.766;8.674;2024-02-21T07:38:56;94467.00;;;5.40
10598;BMP180;5346;48.766;8.674;2024-02-21T07:41:24;94466.00;;;5.30
10598;BMP180;5346;48.766;8.674;2024-02-21T07:43:59;94468.00;;;5.40
10598;BMP180;5346;48.766;8.674;2024-02-21T07:46:27;94456.00;;;5.40
10598;BMP180;5346;48.766;8.674;2024-02-21T07:49:01;94466.00;;;5.20
10598;BMP180;5346;48.766;8.674;2024-02-21T07:51:29;94463.00;;;5.20
10598;BMP180;5346;48.766;8.674;2024-02-21T07:54:03;94477.00;;;5.10
10598;BMP180;5346;48.766;8.674;2024-02-21T07:56:43;94474.00;;;5.20
10598;BMP180;5346;48.766;8.674;2024-02-21T07:59:17;94466.00;;;5.30
10598;BMP180;5346;48.766;8.674;2024-02-21T08:01:45;94478.00;;;5.50
10598;BMP180;5346;48.766;8.674;2024-02-21T08:04:13;94461.00;;;5.70
10598;BMP180;5346;48.766;8.674;2024-02-21T08:06:52;94468.00;;;5.40
10598;BMP180;5346;48.766;8.674;2024-02-21T08:09:27;94457.00;;;5.80
10598;BMP180;5346;48.766;8.674;2024-02-21T08:12:01;94456.00;;;5.80
10598;BMP180;5346;48.766;8.674;2024-02-21T08:14:29;94444.00;;;6.10
10598;BMP180;5346;48.766;8.674;2024-02-21T08:17:03;94438.00;;;6.40
10598;BMP180;5346;48.766;8.674;2024-02-21T08:19:39;94444.00;;;6.80
10598;BMP180;5346;48.766;8.674;2024-02-21T08:22:06;94439.00;;;7.00
10598;BMP180;5346;48.766;8.674;2024-02-21T08:24:40;94442.00;;;6.60
10598;BMP180;5346;48.766;8.674;2024-02-21T08:27:08;94437.00;;;6.90
10598;BMP180;5346;48.766;8.674;2024-02-21T08:29:42;94434.00;;;6.70
10598;BMP180;5346;48.766;8.674;2024-02-21T08:32:10;94427.00;;;6.60
10598;BMP180;5346;48.766;8.674;2024-02-21T08:34:44;94426.00;;;6.90
10598;BMP180;5346;48.766;8.674;2024-02-21T08:37:12;94424.00;;;6.90
10598;BMP180;5346;48.766;8.674;2024-02-21T08:39:49;94426.00;;;6.60
10598;BMP180;5346;48.766;8.674;2024-02-21T08:42:23;94419.00;;;6.50
10598;BMP180;5346;48.766;8.674;2024-02-21T08:45:01;94417.00;;;7.00
10598;BMP180;5346;48.766;8.674;2024-02-21T08:47:28;94418.00;;;7.00
10598;BMP180;5346;48.766;8.674;2024-02-21T08:50:03;94416.00;;;7.20
10598;BMP180;5346;48.766;8.674;2024-02-21T08:52:44;94415.00;;;7.10
10598;BMP180;5346;48.766;8.674;2024-02-21T08:55:19;94412.00;;;7.30
10598;BMP180;5346;48.766;8.674;2024-02-21T08:57:47;94405.00;;;7.40
10598;BMP180;5346;48.766;8.674;2024-02-21T09:00:21;94403.00;;;7.60
10598;BMP180;5346;48.766;8.674;2024-02-21T09:03:02;94417.00;;;7.30
10598;BMP180;5346;48.766;8.674;2024-02-21T09:05:29;94401.00;;;7.60
10598;BMP180;5346;48.766;8.674;2024-02-21T09:08:03;94404.00;;;7.80
10598;BMP180;5346;48.766;8.674;2024-02-21T09:10:32;94412.00;;;7.90
10598;BMP180;5346;48.766;8.674;2024-02-21T09:13:06;94399.00;;;7.90
10598;BMP180;5346;48.766;8.674;2024-02-21T09:15:35;94399.00;;;7.90
10598;BMP180;5346;48.766;8.674;2024-02-21T09:18:09;94398.00;;;8.20
10598;BMP180;5346;48.766;8.674;2024-02-21T09:20:37;94397.00;;;8.50
10598;BMP180;5346;48.766;8.674;2024-02-21T09:23:11;94389.00;;;8.80
10598;BMP180;5346;48.766;8.674;2024-02-21T09:25:39;94390.00;;;8.80
10598;BMP180;5346;48.766;8.674;2024-02-21T09:28:13;94390.00;;;9.30
10598;BMP180;5346;48.766;8.674;2024-02-21T09:30:41;94378.00;;;9.40
10598;BMP180;5346;48.766;8.674;2024-02-21T09:33:15;94380.00;;;9.60
10598;BMP180;5346;48.766;8.674;2024-02-21T09:35:59;94367.00;;;10.00
10598;BMP180;5346;48.766;8.674;2024-02-21T09:38:40;94373.00;;;10.80
10598;BMP180;5346;48.766;8.674;2024-02-21T09:41:28;94365.00;;;11.40
10598;BMP180;5346;48.766;8.674;2024-02-21T09:44:02;94351.00;;;11.80
10598;BMP180;5346;48.766;8.674;2024-02-21T09:46:40;94368.00;;;11.70
10598;BMP180;5346;48.766;8.674;2024-02-21T09:49:34;94357.00;;;12.10
10598;BMP180;5346;48.766;8.674;2024-02-21T09:52:04;94356.00;;;11.60
10598;BMP180;5346;48.766;8.674;2024-02-21T09:54:38;94352.00;;;12.20
10598;BMP180;5346;48.766;8.674;2024-02-21T09:57:08;94350.00;;;12.30
10598;BMP180;5346;48.766;8.674;2024-02-21T09:59:42;94346.00;;;12.60
10598;BMP180;5346;48.766;8.674;2024-02-21T10:02:17;94343.00;;;13.20
10598;BMP180;5346;48.766;8.674;2024-02-21T10:04:51;94342.00;;;12.70
10598;BMP180;5346;48.766;8.674;2024-02-21T10:07:25;94352.00;;;13.30
10598;BMP180;5346;48.766;8.674;2024-02-21T10:10:06;94341.00;;;12.10
10598;BMP180;5346;48.766;8.674;2024-02-21T10:12:34;94339.00;;;11.50
10598;BMP180;5346;48.766;8.674;2024-02-21T10:15:08;94339.00;;;13.00
10598;BMP180;5346;48.766;8.674;2024-02-21T10:17:36;94333.00;;;13.30
10598;BMP180;5346;48.766;8.674;2024-02-21T10:20:11;94324.00;;;14.00
10598;BMP180;5346;48.766;8.674;2024-02-21T10:22:39;94329.00;;;13.60
10598;BMP180;5346;48.766;8.674;2024-02-21T10:25:13;94328.00;;;13.60
10598;BMP180;5346;48.766;8.674;2024-02-21T10:27:41;94318.00;;;14.00
10598;BMP180;5346;48.766;8.674;2024-02-21T10:30:16;94308.00;;;14.40
10598;BMP180;5346;48.766;8.674;2024-02-21T10:32:54;94314.00;;;14.60
10598;BMP180;5346;48.766;8.674;2024-02-21T10:35:31;94319.00;;;13.10
10598;BMP180;5346;48.766;8.674;2024-02-21T10:38:05;94315.00;;;12.60
10598;BMP180;5346;48.766;8.674;2024-02-21T10:40:47;94315.00;;;12.60
10598;BMP180;5346;48.766;8.674;2024-02-21T10:43:22;94316.00;;;12.70
10598;BMP180;5346;48.766;8.674;2024-02-21T10:45:58;94314.00;;;13.10
10598;BMP180;5346;48.766;8.674;2024-02-21T10:48:45;94313.00;;;12.70
10598;BMP180;5346;48.766;8.674;2024-02-21T10:51:20;94310.00;;;12.20
10598;BMP180;5346;48.766;8.674;2024-02-21T10:54:51;94312.00;;;11.80
10598;BMP180;5346;48.766;8.674;2024-02-21T10:56:57;94306.00;;;12.60
10598;BMP180;5346;48.766;8.674;2024-02-21T10:59:26;94306.00;;;12.10
10598;BMP180;5346;48.766;8.674;2024-02-21T11:02:00;94300.00;;;12.00
10598;BMP180;5346;48.766;8.674;2024-02-21T11:04:30;94311.00;;;12.20
10598;BMP180;5346;48.766;8.674;2024-02-21T11:06:59;94298.00;;;12.00
10598;BMP180;5346;48.766;8.674;2024-02-21T11:09:37;94293.00;;;11.80
10598;BMP180;5346;48.766;8.674;2024-02-21T11:12:06;94291.00;;;12.10
10598;BMP180;5346;48.766;8.674;2024-02-21T11:14:42;94287.00;;;11.90
10598;BMP180;5346;48.766;8.674;2024-02-21T11:17:17;94280.00;;;12.00
10598;BMP180;5346;48.766;8.674;2024-02-21T11:19:51;94276.00;;;12.00
10598;BMP180;5346;48.766;8.674;2024-02-21T11:22:20;94274.00;;;12.30
10598;BMP180;5346;48.766;8.674;2024-02-21T11:25:07;94269.00;;;12.10
10598;BMP180;5346;48.766;8.674;2024-02-21T11:27:46;94264.00;;;12.80
10598;BMP180;5346;48.766;8.674;2024-02-21T11:30:27;94262.00;;;13.00
10598;BMP180;5346;48.766;8.674;2024-02-21T11:33:02;94248.00;;;12.30
10598;BMP180;5346;48.766;8.674;2024-02-21T11:35:37;94242.00;;;12.90
10598;BMP180;5346;48.766;8.674;2024-02-21T11:38:12;94245.00;;;13.40
10598;BMP180;5346;48.766;8.674;2024-02-21T11:40:57;94237.00;;;13.50
10598;BMP180;5346;48.766;8.674;2024-02-21T11:43:32;94244.00;;;14.00
10598;BMP180;5346;48.766;8.674;2024-02-21T11:46:03;94240.00;;;13.50
10598;BMP180;5346;48.766;8.674;2024-02-21T11:48:40;94230.00;;;13.20
10598;BMP180;5346;48.766;8.674;2024-02-21T11:51:08;94227.00;;;12.80
10598;BMP180;5346;48.766;8.674;2024-02-21T11:53:42;94212.00;;;12.90
10598;BMP180;5346;48.766;8.674;2024-02-21T11:56:27;94211.00;;;12.80
10598;BMP180;5346;48.766;8.674;2024-02-21T11:58:55;94198.00;;;13.40
10598;BMP180;5346;48.766;8.674;2024-02-21T12:01:29;94196.00;;;12.70
10598;BMP180;5346;48.766;8.674;2024-02-21T12:03:57;94192.00;;;12.60
10598;BMP180;5346;48.766;8.674;2024-02-21T12:06:33;94182.00;;;12.30
10598;BMP180;5346;48.766;8.674;2024-02-21T12:09:08;94177.00;;;12.50
10598;BMP180;5346;48.766;8.674;2024-02-21T12:11:38;94168.00;;;12.50
10598;BMP180;5346;48.766;8.674;2024-02-21T12:14:16;94165.00;;;11.80
10598;BMP180;5346;48.766;8.674;2024-02-21T12:16:50;94164.00;;;12.50
10598;BMP180;5346;48.766;8.674;2024-02-21T12:19:25;94157.00;;;12.40
10598;BMP180;5346;48.766;8.674;2024-02-21T12:22:00;94151.00;;;12.50
10598;BMP180;5346;48.766;8.674;2024-02-21T12:24:28;94146.00;;;12.20
10598;BMP180;5346;48.766;8.674;2024-02-21T12:27:03;94139.00;;;11.70
10598;BMP180;5346;48.766;8.674;2024-02-21T12:29:31;94133.00;;;11.70
10598;BMP180;5346;48.766;8.674;2024-02-21T12:32:05;94121.00;;;11.70
10598;BMP180;5346;48.766;8.674;2024-02-21T12:34:39;94123.00;;;12.00
10598;BMP180;5346;48.766;8.674;2024-02-21T12:37:23;94119.00;;;11.90
10598;BMP180;5346;48.766;8.674;2024-02-21T12:40:01;94112.00;;;12.20
10598;BMP180;5346;48.766;8.674;2024-02-21T12:42:35;94105.00;;;12.30
10598;BMP180;5346;48.766;8.674;2024-02-21T12:45:10;94101.00;;;12.40
10598;BMP180;5346;48.766;8.674;2024-02-21T12:47:38;94103.00;;;12.20
10598;BMP180;5346;48.766;8.674;2024-02-21T12:50:13;94089.00;;;11.80
10598;BMP180;5346;48.766;8.674;2024-02-21T12:52:48;94107.00;;;12.20
10598;BMP180;5346;48.766;8.674;2024-02-21T12:55:23;94095.00;;;12.40
10598;BMP180;5346;48.766;8.674;2024-02-21T12:57:51;94084.00;;;12.10
10598;BMP180;5346;48.766;8.674;2024-02-21T13:00:25;94076.00;;;11.80
10598;BMP180;5346;48.766;8.674;2024-02-21T13:02:55;94075.00;;;11.40
10598;BMP180;5346;48.766;8.674;2024-02-21T13:05:29;94076.00;;;11.50
10598;BMP180;5346;48.766;8.674;2024-02-21T13:07:58;94064.00;;;11.20
10598;BMP180;5346;48.766;8.674;2024-02-21T13:10:33;94065.00;;;11.70
10598;BMP180;5346;48.766;8.674;2024-02-21T13:13:03;94052.00;;;11.40
10598;BMP180;5346;48.766;8.674;2024-02-21T13:15:31;94056.00;;;12.00
10598;BMP180;5346;48.766;8.674;2024-02-21T13:18:05;94051.00;;;12.00
10598;BMP180;5346;48.766;8.674;2024-02-21T13:20:39;94044.00;;;12.00
10598;BMP180;5346;48.766;8.674;2024-02-21T13:23:13;94041.00;;;12.10
10598;BMP180;5346;48.766;8.674;2024-02-21T13:25:47;94029.00;;;12.00
10598;BMP180;5346;48.766;8.674;2024-02-21T13:28:21;94013.00;;;11.90
10598;BMP180;5346;48.766;8.674;2024-02-21T13:30:49;94004.00;;;12.20
10598;BMP180;5346;48.766;8.674;2024-02-21T13:33:23;94009.00;;;12.20
10598;BMP180;5346;48.766;8.674;2024-02-21T13:35:57;94009.00;;;12.00
10598;BMP180;5346;48.766;8.674;2024-02-21T13:38:32;94004.00;;;11.70
10598;BMP180;5346;48.766;8.674;2024-02-21T13:41:13;94006.00;;;11.70
10598;BMP180;5346;48.766;8.674;2024-02-21T13:43:41;94004.00;;;11.70
10598;BMP180;5346;48.766;8.674;2024-02-21T13:46:15;94005.00;;;11.90
10598;BMP180;5346;48.766;8.674;2024-02-21T13:48:50;94004.00;;;11.70
10598;BMP180;5346;48.766;8.674;2024-02-21T13:51:25;93992.00;;;11.50
10598;BMP180;5346;48.766;8.674;2024-02-21T13:53:59;93999.00;;;11.40
10598;BMP180;5346;48.766;8.674;2024-02-21T13:56:33;93987.00;;;11.50
10598;BMP180;5346;48.766;8.674;2024-02-21T13:59:08;93980.00;;;11.40
10598;BMP180;5346;48.766;8.674;2024-02-21T14:01:36;93979.00;;;11.50
10598;BMP180;5346;48.766;8.674;2024-02-21T14:04:10;93972.00;;;11.50
10598;BMP180;5346;48.766;8.674;2024-02-21T14:06:38;93975.00;;;11.40
10598;BMP180;5346;48.766;8.674;2024-02-21T14:09:16;93976.00;;;11.60
10598;BMP180;5346;48.766;8.674;2024-02-21T14:11:50;93977.00;;;11.20
10598;BMP180;5346;48.766;8.674;2024-02-21T14:14:24;93969.00;;;11.40
10598;BMP180;5346;48.766;8.674;2024-02-21T14:16:58;93951.00;;;11.40
10598;BMP180;5346;48.766;8.674;2024-02-21T14:19:26;93962.00;;;11.40
10598;BMP180;5346;48.766;8.674;2024-02-21T14:22:00;93972.00;;;11.10
10598;BMP180;5346;48.766;8.674;2024-02-21T14:24:29;93951.00;;;11.60
10598;BMP180;5346;48.766;8.674;2024-02-21T14:27:03;93955.00;;;11.40
10598;BMP180;5346;48.766;8.674;2024-02-21T14:29:31;93953.00;;;11.40
10598;BMP180;5346;48.766;8.674;2024-02-21T14:32:05;93941.00;;;11.30
10598;BMP180;5346;48.766;8.674;2024-02-21T14:34:41;93949.00;;;11.20
10598;BMP180;5346;48.766;8.674;2024-02-21T14:37:09;93953.00;;;11.00
10598;BMP180;5346;48.766;8.674;2024-02-21T14:39:43;93943.00;;;11.10
10598;BMP180;5346;48.766;8.674;2024-02-21T14:42:17;93943.00;;;11.10
10598;BMP180;5346;48.766;8.674;2024-02-21T14:44:45;93933.00;;;11.30
10598;BMP180;5346;48.766;8.674;2024-02-21T14:47:19;93921.00;;;11.30
10598;BMP180;5346;48.766;8.674;2024-02-21T14:49:53;93919.00;;;11.10
10598;BMP180;5346;48.766;8.674;2024-02-21T14:52:27;93921.00;;;10.90
10598;BMP180;5346;48.766;8.674;2024-02-21T14:55:01;93914.00;;;11.40
10598;BMP180;5346;48.766;8.674;2024-02-21T14:57:36;93907.00;;;11.70
10598;BMP180;5346;48.766;8.674;2024-02-21T15:00:13;93900.00;;;11.30
10598;BMP180;5346;48.766;8.674;2024-02-21T15:02:40;93891.00;;;11.10
10598;BMP180;5346;48.766;8.674;2024-02-21T15:05:14;93890.00;;;10.70
10598;BMP180;5346;48.766;8.674;2024-02-21T15:07:48;93871.00;;;10.90
10598;BMP180;5346;48.766;8.674;2024-02-21T15:10:16;93862.00;;;10.70
10598;BMP180;5346;48.766;8.674;2024-02-21T15:12:52;93863.00;;;10.40
10598;BMP180;5346;48.766;8.674;2024-02-21T15:15:20;93858.00;;;10.40
10598;BMP180;5346;48.766;8.674;2024-02-21T15:17:54;93850.00;;;10.30